Latest Weather Observations for Maria Island

IDT60901

Issued at 8:21 am EST Friday 29 July 2016 (issued every 10 minutes, with the page automatically refreshed every 10 minutes)

About weather observations | Map of Hobart area stations | Latest observations for Hobart area | Other Formats
Station Details ID: 092124 Name: MARIA ISLAND (POINT LESUEUR) Lat: -42.66 Lon: 148.02 Height: 28.0 m
Data from the previous 72 hours. | See also: Recent months at Maria Island
Date/Time
EST
Temp
°C
App
Temp
°C
Dew
Point
°C
Rel
Hum
%
Delta-T
°C
Wind Press
QNH
hPa
Press
MSL
hPa
Rain since
9am
mm
Dir  Spd
km/h
Gust
km/h
Spd
kts
Gust
kts
29/08:00am 10.8 - - - - NNW 26 32 14 17 1006.7 1006.7 0.0
29/07:30am 11.0 - - - - NNW 26 37 14 20 1006.7 1006.7 0.0
29/07:00am 10.4 - - - - NNW 20 28 11 15 1007.0 1007.0 0.0
29/06:30am 9.9 - - - - N 26 32 14 17 1006.8 1006.8 0.0
29/06:00am 9.8 - - - - N 28 35 15 19 1006.9 1006.9 0.0
29/05:30am 9.7 - - - - N 28 33 15 18 1007.0 1007.0 0.0
29/05:00am 9.7 - - - - N 24 30 13 16 1007.1 1007.1 0.0
29/04:30am 9.4 - - - - NNW 24 28 13 15 1007.3 1007.3 0.0
29/04:00am 9.5 - - - - NNW 24 32 13 17 1007.7 1007.7 0.0
29/03:30am 9.6 - - - - NNW 28 33 15 18 1007.7 1007.7 0.0
29/03:00am 10.1 - - - - NNW 30 33 16 18 1007.7 1007.7 0.0
29/02:30am 10.3 - - - - N 19 28 10 15 1008.3 1008.3 0.0
29/02:00am 10.5 - - - - NNW 17 24 9 13 1008.8 1008.8 0.0
29/01:30am 10.3 - - - - N 24 28 13 15 1008.9 1008.9 0.0
29/01:00am 10.1 - - - - N 24 30 13 16 1009.2 1009.2 0.0
29/12:30am 10.8 - - - - NNW 20 24 11 13 1009.4 1009.4 0.0
29/12:00am 10.9 - - - - NW 19 26 10 14 1009.7 1009.7 0.0
 
Date/Time
EST
Temp
°C
App
Temp
°C
Dew
Point
°C
Rel
Hum
%
Delta-T
°C
Wind Press
QNH
hPa
Press
MSL
hPa
Rain since
9am
mm
Dir  Spd
km/h
Gust
km/h
Spd
kts
Gust
kts
28/11:30pm 10.8 - - - - NW 17 28 9 15 1010.0 1010.0 0.0
28/11:00pm 10.6 - - - - NW 15 22 8 12 1010.2 1010.2 0.0
28/10:30pm 10.9 - - - - WNW 20 28 11 15 1010.3 1010.3 0.0
28/10:00pm 10.7 - - - - NW 19 24 10 13 1010.4 1010.4 0.0
28/09:30pm 10.9 - - - - WNW 24 32 13 17 1010.4 1010.4 0.0
28/09:00pm 10.7 - - - - NW 15 22 8 12 1010.6 1010.6 0.0
28/08:30pm 10.9 - - - - NW 24 30 13 16 1010.4 1010.4 0.0
28/08:00pm 11.5 - - - - WNW 20 30 11 16 1010.3 1010.3 0.0
28/07:30pm 11.4 - - - - WSW 15 19 8 10 1010.3 1010.3 0.0
28/07:00pm 11.7 - - - - WSW 22 30 12 16 1010.0 1010.0 0.0
28/06:30pm 11.9 - - - - W 32 43 17 23 1009.6 1009.6 0.0
28/06:00pm 12.1 - - - - W 22 33 12 18 1009.4 1009.4 0.0
28/05:30pm 12.6 - - - - WSW 9 24 5 13 1009.2 1009.2 0.0
28/05:00pm 13.0 - - - - WSW 17 30 9 16 1008.4 1008.4 0.0
28/04:30pm 14.0 - - - - W 17 28 9 15 1007.7 1007.7 0.0
28/04:00pm 14.2 - - - - WSW 17 37 9 20 1007.3 1007.3 0.0
28/03:30pm 14.7 - - - - WSW 33 52 18 28 1006.2 1006.2 0.0
28/03:00pm 14.8 - - - - WSW 20 32 11 17 1006.6 1006.6 0.0
28/02:30pm 15.4 - - - - W 22 44 12 24 1006.3 1006.3 0.0
28/02:00pm 15.3 - - - - WSW 28 43 15 23 1005.8 1005.8 0.0
28/01:32pm 15.2 - - - - WSW 41 59 22 32 1005.6 1005.6 0.0
28/01:30pm 15.4 - - - - WSW 43 59 23 32 1005.5 1005.5 0.0
28/01:27pm 15.1 - - - - WSW 39 59 21 32 1005.4 1005.4 0.0
28/01:00pm 15.1 - - - - W 46 59 25 32 1005.7 1005.7 0.0
28/12:30pm 15.2 - - - - W 35 57 19 31 1005.8 1005.8 0.0
28/12:23pm 15.1 - - - - W 35 57 19 31 1005.7 1005.7 0.0
28/12:00pm 15.1 - - - - W 24 33 13 18 1006.0 1006.0 0.0
28/11:49am 14.9 - - - - WSW 30 46 16 25 1006.1 1006.1 0.0
28/11:41am 14.8 - - - - WSW 30 48 16 26 1005.9 1005.9 0.0
28/11:38am 14.9 - - - - W 28 48 15 26 1006.1 1006.1 0.0
28/11:30am 14.8 - - - - W 28 44 15 24 1006.2 1006.2 0.0
28/11:00am 14.4 - - - - W 35 54 19 29 1006.4 1006.4 0.0
28/10:47am 14.4 - - - - W 33 59 18 32 1006.0 1006.0 0.0
28/10:30am 14.1 - - - - W 41 57 22 31 1006.2 1006.2 0.0
28/10:00am 13.9 - - - - W 30 48 16 26 1006.2 1006.2 0.0
28/09:52am 13.9 - - - - WNW 28 46 15 25 1006.0 1006.0 0.0
28/09:30am 13.5 - - - - W 15 28 8 15 1006.3 1006.3 0.0
28/09:00am 12.4 - - - - WNW 15 24 8 13 1006.3 1006.3 0.6
28/08:30am 11.6 - - - - N 24 37 13 20 1005.8 1005.8 0.6
28/08:00am 10.7 - - - - N 24 32 13 17 1005.5 1005.5 0.6
28/07:30am 10.5 - - - - NNW 17 24 9 13 1005.8 1005.8 0.6
28/07:00am 10.0 - - - - NNW 20 26 11 14 1006.0 1006.0 0.6
28/06:30am 10.1 - - - - N 26 32 14 17 1006.1 1006.1 0.6
28/06:00am 10.5 - - - - N 20 26 11 14 1006.2 1006.2 0.6
28/05:30am 10.3 - - - - N 13 19 7 10 1006.0 1006.0 0.6
28/05:00am 9.8 - - - - N 13 19 7 10 1006.0 1006.0 0.6
28/04:30am 10.1 - - - - W 15 30 8 16 1006.5 1006.5 0.6
28/04:00am 10.4 - - - - W 22 33 12 18 1006.4 1006.4 0.6
28/03:30am 10.6 - - - - W 32 43 17 23 1006.3 1006.3 0.6
28/03:00am 11.0 - - - - WSW 43 63 23 34 1005.7 1005.7 0.6
28/02:30am 11.2 - - - - WSW 41 65 22 35 1005.8 1005.8 0.6
28/02:02am 11.1 - - - - W 41 59 22 32 1005.9 1005.9 0.6
28/02:00am 11.1 - - - - W 43 59 23 32 1005.9 1005.9 0.6
28/01:42am 11.3 - - - - W 48 69 26 37 1005.6 1005.6 0.6
28/01:30am 11.3 - - - - W 46 57 25 31 1005.6 1005.6 0.6
28/01:00am 11.2 - - - - W 41 54 22 29 1005.3 1005.3 0.6
28/12:44am 11.0 - - - - W 41 61 22 33 1005.2 1005.2 0.6
28/12:30am 11.2 - - - - W 46 56 25 30 1005.2 1005.2 0.6
28/12:00am 11.2 - - - - W 41 54 22 29 1004.9 1004.9 0.6
 
Date/Time
EST
Temp
°C
App
Temp
°C
Dew
Point
°C
Rel
Hum
%
Delta-T
°C
Wind Press
QNH
hPa
Press
MSL
hPa
Rain since
9am
mm
Dir  Spd
km/h
Gust
km/h
Spd
kts
Gust
kts
27/11:32pm 11.1 - - - - W 37 57 20 31 1004.9 1004.9 0.6
27/11:30pm 11.0 - - - - W 35 48 19 26 1005.0 1005.0 0.6
27/11:00pm 11.0 - - - - W 35 48 19 26 1004.5 1004.5 0.6
27/10:30pm 11.0 - - - - W 35 46 19 25 1004.4 1004.4 0.6
27/10:00pm 10.8 - - - - W 43 54 23 29 1004.0 1004.0 0.6
27/09:41pm 10.5 - - - - W 32 52 17 28 1004.2 1004.2 0.6
27/09:30pm 10.4 - - - - W 30 44 16 24 1004.1 1004.1 0.6
27/09:00pm 10.5 - - - - WSW 37 46 20 25 1003.5 1003.5 0.6
27/08:34pm 9.9 - - - - W 30 50 16 27 1003.1 1003.1 0.6
27/08:30pm 9.5 - - - - W 28 35 15 19 1003.2 1003.2 0.6
27/08:07pm 9.2 - - - - W 32 52 17 28 1003.2 1003.2 0.4
27/08:00pm 9.4 - - - - W 35 52 19 28 1002.9 1002.9 0.0
27/07:36pm 10.3 - - - - WNW 46 74 25 40 1001.8 1001.8 0.0
27/07:30pm 10.1 - - - - WNW 48 61 26 33 1001.6 1001.6 0.0
27/07:00pm 10.0 - - - - WNW 39 56 21 30 1001.2 1001.2 0.0
27/06:30pm 9.0 - - - - WNW 37 48 20 26 1001.2 1001.2 0.0
27/06:00pm 9.7 - - - - WNW 48 69 26 37 1001.7 1001.7 0.0
27/05:30pm 9.4 - - - - WNW 50 70 27 38 1000.4 1000.4 0.0
27/05:18pm 9.3 - - - - WNW 39 57 21 31 1001.0 1001.0 0.0
27/05:00pm 9.4 - - - - NW 43 57 23 31 1001.0 1001.0 0.0
27/04:31pm 9.5 - - - - WNW 44 70 24 38 1001.0 1001.0 0.0
27/04:30pm 9.5 - - - - WNW 43 61 23 33 1001.2 1001.2 0.0
27/04:28pm 9.5 - - - - WNW 41 61 22 33 1001.4 1001.4 0.0
27/04:12pm 9.7 - - - - WNW 33 50 18 27 1001.3 1001.3 0.0
27/04:00pm 9.4 - - - - NW 17 30 9 16 1001.9 1001.9 0.0
27/03:30pm 9.1 - - - - NW 24 35 13 19 1002.3 1002.3 0.0
27/03:00pm 9.2 - - - - NW 28 46 15 25 1002.9 1002.9 0.0
27/02:56pm 9.3 - - - - WNW 28 46 15 25 1002.7 1002.7 0.0
27/02:30pm 9.4 - - - - WNW 22 32 12 17 1002.6 1002.6 0.0
27/02:00pm 9.2 - - - - WNW 17 22 9 12 1002.9 1002.9 0.0
27/01:30pm 9.3 - - - - W 30 43 16 23 1003.1 1003.1 0.0
27/01:00pm 9.4 - - - - W 32 48 17 26 1003.5 1003.5 0.0
27/12:30pm 9.1 - - - - WSW 30 43 16 23 1003.3 1003.3 0.0
27/12:26pm 8.9 - - - - WSW 30 48 16 26 1003.3 1003.3 0.0
27/12:00pm 8.7 - - - - W 24 37 13 20 1003.5 1003.5 0.0
27/11:30am 8.9 - - - - WSW 26 37 14 20 1003.6 1003.6 0.0
27/11:00am 8.4 - - - - WSW 24 39 13 21 1003.7 1003.7 0.0
27/10:30am 8.2 - - - - WSW 19 37 10 20 1003.7 1003.7 0.0
27/10:00am 8.1 - - - - WSW 19 28 10 15 1003.2 1003.2 0.0
27/09:30am 7.6 - - - - WSW 22 35 12 19 1003.1 1003.1 0.0
27/09:00am 6.9 - - - - W 11 17 6 9 1003.1 1003.1 0.0
27/08:30am 6.6 - - - - W 11 15 6 8 1002.6 1002.6 0.0
27/08:00am 6.2 - - - - W 11 19 6 10 1002.1 1002.1 0.0
27/07:30am 6.5 - - - - W 15 22 8 12 1001.6 1001.6 0.0
27/07:00am 6.7 - - - - WSW 22 30 12 16 1000.7 1000.7 0.0
27/06:30am 6.7 - - - - WSW 30 41 16 22 1000.1 1000.1 0.0
27/06:00am 7.0 - - - - SW 35 48 19 26 999.4 999.4 0.0
27/05:30am 7.0 - - - - SW 30 37 16 20 998.8 998.9 0.0
27/05:00am 7.1 - - - - SW 33 43 18 23 998.2 998.3 0.0
27/04:30am 7.3 - - - - SW 35 48 19 26 997.1 997.2 0.0
27/04:00am 8.3 - - - - SW 32 39 17 21 996.3 996.4 0.0
27/03:30am 7.3 - - - - NW 20 26 11 14 995.5 995.6 0.0
27/03:00am 7.5 - - - - WNW 17 26 9 14 994.8 994.9 0.0
27/02:30am 7.7 - - - - WNW 6 15 3 8 994.3 994.4 0.0
27/02:00am 8.5 - - - - WNW 22 39 12 21 993.9 994.0 0.0
27/01:30am 8.3 - - - - NW 32 41 17 22 993.9 994.0 0.0
27/01:00am 8.5 - - - - NW 33 43 18 23 993.9 994.0 0.0
27/12:30am 8.5 - - - - N 32 41 17 22 993.7 993.8 0.0
27/12:00am 8.3 - - - - NNW 32 39 17 21 994.5 994.6 0.0
 
Date/Time
EST
Temp
°C
App
Temp
°C
Dew
Point
°C
Rel
Hum
%
Delta-T
°C
Wind Press
QNH
hPa
Press
MSL
hPa
Rain since
9am
mm
Dir  Spd
km/h
Gust
km/h
Spd
kts
Gust
kts
26/11:30pm 7.8 - - - - N 32 41 17 22 995.3 995.4 0.0
26/11:00pm 7.4 - - - - N 35 44 19 24 995.5 995.6 0.0
26/10:30pm 7.2 - - - - N 39 44 21 24 996.1 996.2 0.0
26/10:00pm 7.2 - - - - N 37 43 20 23 996.6 996.7 0.0
26/09:30pm 7.3 - - - - N 37 48 20 26 997.4 997.5 0.0
26/09:00pm 7.5 - - - - N 35 43 19 23 997.7 997.8 0.0
26/08:30pm 7.7 - - - - N 39 44 21 24 997.9 998.0 0.0
26/08:00pm 7.8 - - - - N 39 44 21 24 998.2 998.3 0.0
26/07:30pm 8.2 - - - - N 32 37 17 20 998.7 998.8 0.0
26/07:00pm 8.2 - - - - NW 20 26 11 14 998.9 999.0 0.0
26/06:30pm 8.6 - - - - NW 19 28 10 15 998.9 999.0 0.0
26/06:00pm 8.8 - - - - WNW 24 35 13 19 998.8 998.9 0.0
26/05:30pm 8.8 - - - - WNW 24 30 13 16 998.7 998.8 0.0
26/05:00pm 9.2 - - - - WNW 22 30 12 16 998.4 998.5 0.0
26/04:30pm 9.6 - - - - WNW 28 43 15 23 998.3 998.4 0.0
26/04:00pm 9.8 - - - - WNW 20 26 11 14 998.6 998.7 0.0
26/03:30pm 10.1 - - - - WNW 19 26 10 14 998.9 999.0 0.0
26/03:01pm 10.3 - - - - WNW 28 48 15 26 998.4 998.5 0.0
26/03:00pm 10.4 - - - - WNW 28 35 15 19 998.4 998.5 0.0
26/02:32pm 10.3 - - - - WNW 33 52 18 28 998.3 998.4 0.0
26/02:30pm 10.4 - - - - WNW 35 52 19 28 998.3 998.4 0.0
26/02:03pm 10.0 - - - - WNW 46 67 25 36 997.8 997.9 0.0
26/02:00pm 10.0 - - - - WNW 48 67 26 36 997.7 997.8 0.0
26/01:35pm 9.9 - - - - WNW 48 70 26 38 997.5 997.6 0.0
26/01:30pm 9.9 - - - - WNW 44 61 24 33 997.7 997.8 0.0
26/01:11pm 9.5 - - - - WNW 43 61 23 33 997.6 997.7 0.0
26/01:00pm 9.7 - - - - WNW 44 54 24 29 997.3 997.4 0.0
26/12:30pm 9.6 - - - - WNW 46 63 25 34 996.8 996.9 0.0
26/12:00pm 9.6 - - - - W 44 61 24 33 997.0 997.1 0.0
26/11:30am 8.9 - - - - W 48 69 26 37 996.4 996.5 0.0
26/11:21am 8.7 - - - - W 52 72 28 39 996.5 996.6 0.0
26/11:00am 8.6 - - - - WNW 48 65 26 35 996.2 996.3 0.0
26/10:56am 8.5 - - - - WNW 46 65 25 35 996.1 996.2 0.0
26/10:30am 8.1 - - - - W 54 70 29 38 996.0 996.1 0.0
26/10:14am 7.7 - - - - W 52 70 28 38 996.0 996.1 0.0
26/10:00am 7.7 - - - - W 56 70 30 38 995.9 996.0 0.0
26/09:52am 7.4 - - - - WNW 46 67 25 36 995.9 996.0 0.0
26/09:30am 7.1 - - - - W 46 61 25 33 996.3 996.4 0.0
26/09:00am 6.3 - - - - WNW 43 52 23 28 996.5 996.6 0.0
26/08:30am 6.0 - - - - WNW 41 50 22 27 995.8 995.9 0.0

Latest Capital City Observations: Canberra | Sydney | Melbourne | Brisbane | Adelaide | Perth | Hobart | Darwin

Other Formats:

Comma delimited format used in spreadsheet applications
http://www.bom.gov.au/fwo/IDT60901/IDT60901.95988.axf

JavaScript Object Notation format (JSON) in row-major order
http://www.bom.gov.au/fwo/IDT60901/IDT60901.95988.json